Time;durP1;ratioP1;P1;durP2;ratioP2;P2;SDS_P1;SDS_P2;PMS_P1;PMS_P2;Temp;Humidity;BMP_temperature;BMP_pressure;BME280_temperature;BME280_humidity;BME280_pressure;Samples;Min_cycle;Max_cycle;Signal;HPM_P1;HPM_P2
2022/02/28 00:01:00;;;;;;;3.03;1.95;;;5.70;99.90;;;;;;4997576;28;20135;-62
2022/02/28 00:03:27;;;;;;;3.42;2.50;;;5.70;99.90;;;;;;5000090;28;20068;-62
2022/02/28 00:05:54;;;;;;;3.58;2.08;;;5.70;99.90;;;;;;5000812;28;20046;-61
2022/02/28 00:08:21;;;;;;;5.15;2.60;;;5.70;99.90;;;;;;5000951;28;20128;-62
2022/02/28 00:10:47;;;;;;;3.15;1.95;;;5.70;99.90;;;;;;5000417;28;20049;-62
2022/02/28 00:13:14;;;;;;;5.40;2.35;;;5.80;99.90;;;;;;5003637;28;20545;-62
2022/02/28 00:15:41;;;;;;;4.32;2.55;;;5.70;99.90;;;;;;5002528;28;20145;-62
2022/02/28 00:18:08;;;;;;;4.93;2.47;;;5.80;99.90;;;;;;5004953;28;20046;-62
2022/02/28 00:20:34;;;;;;;5.90;2.53;;;5.80;99.90;;;;;;5004297;28;20133;-62
2022/02/28 00:23:01;;;;;;;5.80;2.35;;;5.80;99.90;;;;;;5001530;28;20099;-62
2022/02/28 00:25:31;;;;;;;3.97;2.40;;;5.80;99.90;;;;;;5001827;28;20512;-61
2022/02/28 00:27:58;;;;;;;3.03;2.28;;;5.80;99.90;;;;;;5004270;28;20088;-62
2022/02/28 00:30:25;;;;;;;3.60;1.95;;;5.90;99.90;;;;;;5001999;28;20504;-62
2022/02/28 00:32:51;;;;;;;4.20;2.33;;;5.90;99.90;;;;;;5004112;28;20141;-62
2022/02/28 00:35:18;;;;;;;4.13;2.50;;;5.90;99.90;;;;;;5003758;28;20177;-62
2022/02/28 00:37:45;;;;;;;4.68;2.40;;;5.90;99.90;;;;;;5004575;28;20128;-62
2022/02/28 00:40:11;;;;;;;5.32;2.47;;;5.90;99.90;;;;;;5003261;28;20423;-62
2022/02/28 00:42:38;;;;;;;4.68;2.10;;;5.90;99.90;;;;;;5004272;28;20052;-60
2022/02/28 00:45:05;;;;;;;4.20;2.60;;;5.90;99.90;;;;;;5015733;28;20141;-63
2022/02/28 00:47:32;;;;;;;3.40;2.25;;;6.00;99.90;;;;;;4995066;28;20074;-61
2022/02/28 00:49:59;;;;;;;4.15;2.97;;;6.00;99.90;;;;;;5001950;28;20107;-62
2022/02/28 00:52:25;;;;;;;4.47;2.30;;;6.00;99.90;;;;;;5003547;28;20061;-62
2022/02/28 00:54:52;;;;;;;5.00;2.30;;;5.90;99.90;;;;;;5001116;28;20054;-62
2022/02/28 00:57:19;;;;;;;4.82;2.40;;;5.90;99.90;;;;;;5003669;28;20077;-62
2022/02/28 00:59:46;;;;;;;4.28;2.38;;;5.90;99.90;;;;;;4999774;28;20136;-62
2022/02/28 01:02:13;;;;;;;4.43;2.28;;;5.90;99.90;;;;;;5022992;28;20449;-62
2022/02/28 01:04:40;;;;;;;4.43;2.13;;;5.90;99.90;;;;;;5006838;28;20041;-62
2022/02/28 01:07:06;;;;;;;3.35;2.17;;;5.90;99.90;;;;;;5003744;28;20208;-63
2022/02/28 01:09:33;;;;;;;4.38;2.13;;;5.90;99.90;;;;;;5002071;28;20129;-62
2022/02/28 01:12:02;;;;;;;4.88;2.45;;;5.90;99.90;;;;;;5003382;28;20506;-62
2022/02/28 01:14:29;;;;;;;3.10;2.30;;;5.90;99.90;;;;;;5001196;28;20307;-62
2022/02/28 01:16:56;;;;;;;3.35;2.33;;;5.90;99.90;;;;;;5003127;28;20058;-62
2022/02/28 01:19:22;;;;;;;4.50;2.35;;;5.90;99.90;;;;;;5002928;28;20046;-62
2022/02/28 01:21:49;;;;;;;3.33;2.42;;;5.80;99.90;;;;;;5002926;28;20128;-62
2022/02/28 01:24:16;;;;;;;4.72;2.50;;;5.80;99.90;;;;;;5001358;28;20164;-62
2022/02/28 01:26:43;;;;;;;4.53;2.58;;;5.80;99.90;;;;;;5003711;28;20132;-62
2022/02/28 01:29:10;;;;;;;4.50;2.40;;;5.80;99.90;;;;;;5000974;28;20077;-62
2022/02/28 01:31:36;;;;;;;5.10;2.65;;;5.80;99.90;;;;;;4998790;28;20644;-62
2022/02/28 01:34:04;;;;;;;3.80;2.58;;;5.80;99.90;;;;;;5002582;28;20132;-62
2022/02/28 01:36:30;;;;;;;4.45;2.42;;;5.80;99.90;;;;;;5003042;28;20147;-62
2022/02/28 01:38:57;;;;;;;4.30;2.50;;;5.80;99.90;;;;;;5013702;28;20124;-62
2022/02/28 01:41:24;;;;;;;5.38;2.25;;;5.70;99.90;;;;;;5007927;28;20100;-62
2022/02/28 01:43:51;;;;;;;3.70;2.30;;;5.70;99.90;;;;;;5001157;28;20627;-62
2022/02/28 01:46:17;;;;;;;2.90;2.00;;;5.70;99.90;;;;;;5002344;28;20064;-62
2022/02/28 01:48:44;;;;;;;4.30;2.08;;;5.70;99.90;;;;;;5002324;28;20138;-62
2022/02/28 01:51:11;;;;;;;5.07;2.72;;;5.60;99.90;;;;;;5002108;28;20092;-62
2022/02/28 01:53:38;;;;;;;3.63;2.40;;;5.60;99.90;;;;;;5001671;28;20860;-62
2022/02/28 01:56:04;;;;;;;5.75;3.20;;;5.60;99.90;;;;;;5001794;28;20045;-62
2022/02/28 01:58:34;;;;;;;4.85;2.47;;;5.60;99.90;;;;;;5001693;28;20429;-63
2022/02/28 02:01:01;;;;;;;4.03;2.20;;;5.60;99.90;;;;;;5001768;28;20077;-62
2022/02/28 02:03:28;;;;;;;3.55;2.05;;;5.60;99.90;;;;;;5002761;28;20053;-62
2022/02/28 02:05:54;;;;;;;3.60;2.05;;;5.60;99.90;;;;;;5002566;28;20136;-62
2022/02/28 02:08:21;;;;;;;4.68;2.53;;;5.60;99.90;;;;;;5001932;28;20081;-62
2022/02/28 02:10:48;;;;;;;3.45;2.35;;;5.50;99.90;;;;;;5001033;28;20531;-62
2022/02/28 02:13:15;;;;;;;4.47;2.13;;;5.60;99.90;;;;;;5001882;28;20560;-62
2022/02/28 02:15:42;;;;;;;3.67;2.05;;;5.50;99.90;;;;;;4999122;28;20103;-62
2022/02/28 02:18:09;;;;;;;3.65;2.35;;;5.50;99.90;;;;;;4985030;28;20070;-62
2022/02/28 02:20:37;;;;;;;3.67;2.15;;;5.60;99.90;;;;;;5001935;28;20241;-62
2022/02/28 02:23:09;;;;;;;4.32;2.10;;;5.60;99.90;;;;;;5002225;28;20056;-62
2022/02/28 02:25:36;;;;;;;3.70;2.22;;;5.60;99.90;;;;;;5000420;28;20073;-61
2022/02/28 02:28:03;;;;;;;4.40;2.47;;;5.60;99.90;;;;;;5002414;28;20563;-63
2022/02/28 02:30:30;;;;;;;4.57;2.80;;;5.60;99.90;;;;;;5015181;28;20139;-62
2022/02/28 02:32:57;;;;;;;3.80;2.83;;;5.60;99.90;;;;;;5022545;28;20065;-63
2022/02/28 02:35:24;;;;;;;5.45;3.45;;;5.60;99.90;;;;;;5021698;28;20598;-62
2022/02/28 02:37:51;;;;;;;4.47;2.70;;;5.60;99.90;;;;;;5019811;28;20108;-61
2022/02/28 02:40:17;;;;;;;5.13;2.30;;;5.60;99.90;;;;;;5002892;28;20089;-61
2022/02/28 02:42:44;;;;;;;3.40;1.90;;;5.60;99.90;;;;;;5004315;28;20469;-62
2022/02/28 02:45:13;;;;;;;4.13;2.10;;;5.60;99.90;;;;;;5001732;28;20104;-62
2022/02/28 02:47:40;;;;;;;4.10;2.33;;;5.60;99.90;;;;;;5003021;28;20280;-67
2022/02/28 02:50:07;;;;;;;4.03;2.30;;;5.60;99.90;;;;;;5003641;28;20472;-63
2022/02/28 02:52:34;;;;;;;2.60;1.67;;;5.60;99.90;;;;;;5003479;28;20149;-62
2022/02/28 02:55:01;;;;;;;4.18;1.73;;;5.60;99.90;;;;;;5002074;28;20073;-63
2022/02/28 02:57:27;;;;;;;4.43;2.10;;;5.70;99.90;;;;;;5003617;28;20544;-62
2022/02/28 02:59:54;;;;;;;3.75;2.20;;;5.70;99.90;;;;;;5007446;28;20081;-62
2022/02/28 03:02:21;;;;;;;5.10;2.63;;;5.80;99.90;;;;;;5017213;28;20586;-62
2022/02/28 03:04:48;;;;;;;4.70;2.33;;;5.80;99.90;;;;;;5021845;28;20282;-62
2022/02/28 03:07:18;;;;;;;4.50;2.47;;;5.80;99.90;;;;;;5022875;28;20077;-63
2022/02/28 03:09:45;;;;;;;4.07;2.38;;;5.90;99.90;;;;;;5018984;28;20136;-62
2022/02/28 03:12:12;;;;;;;6.03;2.45;;;5.90;99.90;;;;;;5003549;28;20552;-62
2022/02/28 03:14:39;;;;;;;4.93;2.42;;;6.00;99.90;;;;;;5001379;28;20121;-62
2022/02/28 03:17:06;;;;;;;4.32;2.35;;;6.00;99.90;;;;;;5003368;28;20119;-62
2022/02/28 03:19:33;;;;;;;5.43;2.33;;;6.10;99.90;;;;;;5002551;28;20133;-62
2022/02/28 03:21:59;;;;;;;4.20;2.65;;;6.10;99.90;;;;;;5003174;28;20469;-62
2022/02/28 03:24:26;;;;;;;3.53;2.47;;;6.20;99.90;;;;;;5002012;28;20101;-63
2022/02/28 03:26:53;;;;;;;4.40;2.13;;;6.20;99.90;;;;;;5003492;28;20101;-62
2022/02/28 03:29:20;;;;;;;4.90;2.40;;;6.30;99.90;;;;;;5000706;28;20073;-63
2022/02/28 03:31:46;;;;;;;3.83;2.28;;;6.30;99.90;;;;;;5002294;28;20089;-62
2022/02/28 03:34:13;;;;;;;4.70;2.67;;;6.40;99.90;;;;;;5001925;28;20089;-62
2022/02/28 03:36:40;;;;;;;4.93;3.10;;;6.40;99.90;;;;;;5022019;28;20409;-62
2022/02/28 03:39:06;;;;;;;4.43;2.50;;;6.40;99.90;;;;;;5009492;28;20129;-62
2022/02/28 03:41:33;;;;;;;3.50;2.42;;;6.40;99.90;;;;;;5002487;28;20142;-63
2022/02/28 03:44:00;;;;;;;6.28;2.75;;;6.40;99.90;;;;;;5001284;28;20708;-62
2022/02/28 03:46:27;;;;;;;5.15;2.42;;;6.40;99.90;;;;;;5001343;28;20107;-62
2022/02/28 03:48:54;;;;;;;5.07;2.60;;;6.40;99.90;;;;;;5009930;28;20085;-62
2022/02/28 03:51:20;;;;;;;4.35;2.22;;;6.40;99.90;;;;;;5009674;28;20595;-62
2022/02/28 03:53:47;;;;;;;3.13;2.10;;;6.40;99.90;;;;;;4999717;28;20050;-62
2022/02/28 03:56:14;;;;;;;3.83;2.40;;;6.40;99.90;;;;;;5001897;28;20190;-62
2022/02/28 03:58:40;;;;;;;3.50;2.33;;;6.40;99.90;;;;;;5001267;28;20061;-62
2022/02/28 04:01:07;;;;;;;4.45;2.50;;;6.40;99.90;;;;;;5001449;28;20056;-62
2022/02/28 04:03:37;;;;;;;3.20;1.85;;;6.50;99.90;;;;;;5002632;28;20054;-62
2022/02/28 04:06:04;;;;;;;3.17;1.70;;;6.50;99.90;;;;;;5001199;28;20132;-62
2022/02/28 04:08:30;;;;;;;4.78;2.30;;;6.60;99.90;;;;;;5002592;28;20537;-62
2022/02/28 04:10:57;;;;;;;4.40;1.83;;;6.60;99.90;;;;;;5001917;28;20089;-62
2022/02/28 04:13:24;;;;;;;3.60;1.65;;;6.60;99.90;;;;;;5000764;28;20112;-62
2022/02/28 04:15:50;;;;;;;4.25;2.38;;;6.70;99.90;;;;;;5000742;28;20422;-62
2022/02/28 04:18:17;;;;;;;3.78;2.03;;;6.70;99.90;;;;;;5002318;28;20038;-61
2022/02/28 04:20:44;;;;;;;4.38;1.90;;;6.80;99.90;;;;;;5002109;28;20054;-62
2022/02/28 04:23:11;;;;;;;3.25;2.00;;;6.90;99.90;;;;;;4998785;28;20074;-62
2022/02/28 04:25:37;;;;;;;3.97;2.05;;;6.90;99.90;;;;;;5001945;28;20156;-63
2022/02/28 04:28:04;;;;;;;4.53;2.28;;;7.00;99.90;;;;;;5002569;28;20046;-62
2022/02/28 04:30:31;;;;;;;3.92;2.10;;;7.00;99.90;;;;;;5000145;28;20076;-62
2022/02/28 04:32:57;;;;;;;3.85;2.20;;;7.00;99.90;;;;;;5002302;28;20085;-62
2022/02/28 04:35:24;;;;;;;3.13;1.88;;;7.00;99.90;;;;;;5001632;28;20137;-62
2022/02/28 04:37:51;;;;;;;3.50;2.00;;;7.00;99.90;;;;;;5002486;28;20129;-63
2022/02/28 04:40:18;;;;;;;3.88;2.15;;;7.10;99.90;;;;;;5001899;28;20382;-62
2022/02/28 04:42:47;;;;;;;2.90;1.83;;;7.10;99.90;;;;;;5002857;28;20451;-61
2022/02/28 04:45:14;;;;;;;4.20;2.05;;;7.10;99.90;;;;;;4999916;28;20112;-62
2022/02/28 04:47:40;;;;;;;3.67;2.20;;;7.10;99.90;;;;;;5001275;28;20120;-62
2022/02/28 04:50:07;;;;;;;4.00;2.20;;;7.20;99.90;;;;;;5001334;28;20085;-62
2022/02/28 04:52:34;;;;;;;3.67;2.15;;;7.20;99.90;;;;;;5001453;28;20129;-61
2022/02/28 04:55:01;;;;;;;4.63;2.35;;;7.20;99.90;;;;;;4999789;28;20129;-63
2022/02/28 04:57:29;;;;;;;3.85;1.98;;;7.20;99.90;;;;;;5002441;28;20081;-62
2022/02/28 04:59:56;;;;;;;3.60;2.40;;;7.30;99.90;;;;;;5003582;28;20152;-62
2022/02/28 05:02:23;;;;;;;4.13;1.85;;;7.30;99.90;;;;;;5005894;28;20045;-62
2022/02/28 05:04:50;;;;;;;2.83;1.88;;;7.30;99.90;;;;;;5004766;28;20056;-63
2022/02/28 05:07:16;;;;;;;3.03;1.98;;;7.40;99.90;;;;;;5006010;28;20111;-62
2022/02/28 05:09:43;;;;;;;3.13;1.58;;;7.40;99.90;;;;;;5004451;28;20050;-62
2022/02/28 05:12:10;;;;;;;5.57;2.03;;;7.40;99.90;;;;;;5005525;28;20167;-62
2022/02/28 05:14:37;;;;;;;2.85;1.92;;;7.40;99.90;;;;;;5003135;28;20453;-62
2022/02/28 05:17:03;;;;;;;3.88;2.22;;;7.40;99.90;;;;;;5005356;28;20056;-62
2022/02/28 05:19:30;;;;;;;4.18;1.90;;;7.50;99.90;;;;;;5004532;28;20081;-62
2022/02/28 05:22:02;;;;;;;2.72;1.77;;;7.50;99.90;;;;;;5005464;28;20433;-62
2022/02/28 05:24:33;;;;;;;3.67;1.95;;;7.50;99.90;;;;;;5003842;28;20615;-62
2022/02/28 05:27:00;;;;;;;3.90;1.58;;;7.60;99.90;;;;;;5005478;28;20100;-62
2022/02/28 05:29:27;;;;;;;5.03;1.98;;;7.60;99.90;;;;;;5003001;28;20477;-61
2022/02/28 05:31:55;;;;;;;4.63;1.90;;;7.60;99.90;;;;;;5002224;28;20077;-64
2022/02/28 05:34:22;;;;;;;3.00;1.80;;;7.70;99.90;;;;;;5001212;28;20050;-61
2022/02/28 05:36:49;;;;;;;3.00;2.03;;;7.70;99.90;;;;;;5003577;28;20132;-61
2022/02/28 05:39:16;;;;;;;4.30;1.90;;;7.70;99.90;;;;;;5003874;28;20491;-61
2022/02/28 05:41:42;;;;;;;2.65;1.75;;;7.70;99.90;;;;;;5004859;28;20065;-63
2022/02/28 05:44:09;;;;;;;3.65;2.10;;;7.80;99.90;;;;;;5002560;28;20153;-63
2022/02/28 05:46:36;;;;;;;2.92;1.92;;;7.80;99.90;;;;;;5003483;28;20508;-64
2022/02/28 05:49:02;;;;;;;2.72;1.95;;;7.80;99.90;;;;;;5003661;28;20073;-64
2022/02/28 05:51:29;;;;;;;4.05;2.22;;;7.80;99.90;;;;;;5002018;28;20173;-63
2022/02/28 05:53:56;;;;;;;4.25;1.73;;;7.80;99.90;;;;;;5002126;28;20104;-63
2022/02/28 05:56:23;;;;;;;5.00;1.95;;;7.80;99.90;;;;;;5003965;28;20639;-63
2022/02/28 05:58:50;;;;;;;2.85;1.80;;;7.90;99.90;;;;;;5002959;28;20793;-63
2022/02/28 06:01:16;;;;;;;2.50;1.63;;;7.90;99.90;;;;;;5003483;28;20679;-63
2022/02/28 06:03:43;;;;;;;4.72;3.13;;;7.90;99.90;;;;;;5000950;28;20041;-62
2022/02/28 06:06:12;;;;;;;2.83;1.50;;;7.90;99.90;;;;;;5002375;28;20134;-63
2022/02/28 06:08:39;;;;;;;3.83;2.20;;;7.90;99.90;;;;;;5001553;28;20470;-63
2022/02/28 06:11:06;;;;;;;3.33;1.65;;;7.90;99.90;;;;;;5004368;28;20174;-64
2022/02/28 06:13:33;;;;;;;5.13;1.85;;;7.90;99.90;;;;;;5007171;28;20348;-63
2022/02/28 06:16:00;;;;;;;4.07;1.98;;;7.90;99.90;;;;;;5013086;28;20053;-63
2022/02/28 06:18:27;;;;;;;3.15;1.85;;;7.90;99.90;;;;;;5014081;28;20119;-62
2022/02/28 06:20:54;;;;;;;3.03;1.95;;;7.90;99.90;;;;;;5013537;28;20119;-61
2022/02/28 06:23:21;;;;;;;4.95;2.00;;;7.80;99.90;;;;;;4998486;28;20614;-62
2022/02/28 06:25:47;;;;;;;6.28;2.40;;;7.80;99.90;;;;;;4997006;28;20155;-63
2022/02/28 06:28:18;;;;;;;3.88;1.80;;;7.80;99.90;;;;;;4996953;28;20073;-60
2022/02/28 06:30:45;;;;;;;3.33;1.73;;;7.80;99.90;;;;;;4991025;28;20107;-62
2022/02/28 06:33:11;;;;;;;4.57;1.88;;;7.80;99.90;;;;;;5005086;28;20134;-60
2022/02/28 06:35:38;;;;;;;4.57;2.15;;;7.80;99.90;;;;;;5001849;28;20077;-61
2022/02/28 06:38:09;;;;;;;3.53;2.17;;;7.80;99.90;;;;;;4999264;28;20449;-63
2022/02/28 06:40:38;;;;;;;3.60;2.33;;;7.80;99.90;;;;;;4993955;28;20056;-62
2022/02/28 06:43:05;;;;;;;3.40;1.73;;;7.90;99.90;;;;;;4996894;28;20217;-62
2022/02/28 06:45:32;;;;;;;3.65;1.90;;;7.90;99.90;;;;;;4993955;28;20502;-61
2022/02/28 06:47:58;;;;;;;4.75;2.03;;;7.90;99.90;;;;;;4986527;28;20133;-62
2022/02/28 06:50:27;;;;;;;4.15;2.17;;;7.90;99.90;;;;;;4991048;28;20058;-64
2022/02/28 06:52:53;;;;;;;3.72;2.13;;;7.90;99.90;;;;;;4987573;28;20088;-64
2022/02/28 06:55:20;;;;;;;3.05;1.80;;;7.90;99.90;;;;;;4996893;28;20797;-63
2022/02/28 06:57:47;;;;;;;3.53;1.98;;;7.90;99.90;;;;;;4993474;28;20548;-61
2022/02/28 07:00:14;;;;;;;3.10;1.92;;;7.90;99.90;;;;;;4992110;28;20565;-62
2022/02/28 07:02:41;;;;;;;4.75;1.88;;;8.00;99.90;;;;;;4984209;28;20096;-62
2022/02/28 07:05:08;;;;;;;3.20;1.52;;;8.00;99.90;;;;;;4990256;28;20628;-62
2022/02/28 07:07:35;;;;;;;3.53;1.52;;;8.10;99.90;;;;;;4990977;28;20124;-62
2022/02/28 07:10:04;;;;;;;4.10;1.55;;;8.10;99.90;;;;;;4995859;28;20141;-62
2022/02/28 07:12:30;;;;;;;4.25;1.70;;;8.20;99.90;;;;;;4991746;28;20170;-61
2022/02/28 07:14:57;;;;;;;4.07;1.85;;;8.20;99.90;;;;;;4981130;28;20164;-62
2022/02/28 07:17:26;;;;;;;2.70;1.80;;;8.20;99.90;;;;;;4990678;28;20263;-61
2022/02/28 07:19:52;;;;;;;3.65;1.75;;;8.30;99.90;;;;;;4991983;28;20168;-61
2022/02/28 07:22:19;;;;;;;2.92;1.55;;;8.30;99.90;;;;;;4988516;28;20137;-62
2022/02/28 07:24:46;;;;;;;3.72;1.55;;;8.30;99.90;;;;;;4997149;28;20145;-62
2022/02/28 07:27:13;;;;;;;5.45;1.52;;;8.30;99.90;;;;;;4996282;28;20129;-62
2022/02/28 07:29:39;;;;;;;3.72;1.80;;;8.30;99.90;;;;;;4995863;28;20232;-61
2022/02/28 07:32:06;;;;;;;2.88;1.30;;;8.30;99.90;;;;;;4990333;28;20144;-61
2022/02/28 07:34:33;;;;;;;4.13;1.73;;;8.40;99.90;;;;;;4997323;28;20137;-62
2022/02/28 07:37:00;;;;;;;2.40;1.52;;;8.40;99.90;;;;;;4998319;28;20100;-62
2022/02/28 07:39:26;;;;;;;3.58;1.98;;;8.50;99.90;;;;;;4995766;28;20073;-61
2022/02/28 07:41:56;;;;;;;2.63;1.45;;;8.50;99.90;;;;;;4998174;28;20149;-61
2022/02/28 07:44:22;;;;;;;3.83;1.70;;;8.50;99.90;;;;;;4995355;28;20056;-61
2022/02/28 07:46:49;;;;;;;3.03;1.38;;;8.60;99.90;;;;;;4995383;28;20041;-62
2022/02/28 07:49:16;;;;;;;3.63;1.80;;;8.50;99.90;;;;;;4995119;28;20090;-62
2022/02/28 07:51:43;;;;;;;5.20;2.33;;;8.60;99.90;;;;;;4991319;28;20108;-62
2022/02/28 07:54:10;;;;;;;3.03;1.83;;;8.60;99.90;;;;;;4993335;28;20921;-61
2022/02/28 07:56:37;;;;;;;2.78;1.38;;;8.60;99.90;;;;;;4996772;28;20077;-62
2022/02/28 07:59:03;;;;;;;4.50;1.80;;;8.70;99.90;;;;;;4995239;28;20204;-61
2022/02/28 08:01:30;;;;;;;3.83;1.90;;;8.70;99.90;;;;;;4995641;28;20687;-60
2022/02/28 08:03:57;;;;;;;2.33;1.60;;;8.70;99.90;;;;;;4997246;28;20140;-61
2022/02/28 08:06:24;;;;;;;4.05;1.80;;;8.80;99.90;;;;;;4998047;28;20127;-61
2022/02/28 08:08:51;;;;;;;2.92;1.77;;;8.80;99.90;;;;;;4997651;28;20073;-59
2022/02/28 08:11:17;;;;;;;5.32;2.10;;;8.90;99.90;;;;;;4994967;28;20050;-61
2022/02/28 08:13:48;;;;;;;3.25;1.58;;;8.90;99.90;;;;;;4994229;28;20142;-59
2022/02/28 08:16:15;;;;;;;3.17;1.45;;;9.00;99.90;;;;;;4996595;28;20157;-61
2022/02/28 08:18:44;;;;;;;3.45;1.60;;;9.10;99.90;;;;;;4996991;28;20054;-60
2022/02/28 08:21:11;;;;;;;3.40;1.48;;;9.20;99.90;;;;;;4998293;28;20119;-60
2022/02/28 08:23:38;;;;;;;5.10;1.98;;;9.30;99.90;;;;;;4997733;28;20145;-60
2022/02/28 08:26:04;;;;;;;3.65;1.83;;;9.40;99.90;;;;;;4995599;28;20201;-61
2022/02/28 08:28:31;;;;;;;2.78;1.45;;;9.50;99.90;;;;;;4997201;28;20148;-60
2022/02/28 08:30:58;;;;;;;3.80;1.88;;;9.60;99.90;;;;;;4996619;28;20550;-61
2022/02/28 08:33:25;;;;;;;3.78;1.90;;;9.70;99.90;;;;;;4999404;28;20280;-61
2022/02/28 08:35:51;;;;;;;2.95;1.77;;;9.80;99.90;;;;;;5000976;28;20151;-61
2022/02/28 08:38:18;;;;;;;5.28;1.65;;;10.00;99.90;;;;;;5001010;28;20489;-60
2022/02/28 08:40:45;;;;;;;3.90;1.90;;;10.10;99.90;;;;;;5000877;28;20163;-61
2022/02/28 08:43:12;;;;;;;4.38;1.90;;;10.30;99.90;;;;;;5001137;28;20135;-60
2022/02/28 08:45:39;;;;;;;4.65;2.03;;;10.40;99.90;;;;;;5000306;28;20145;-61
2022/02/28 08:48:05;;;;;;;5.28;2.30;;;10.50;99.90;;;;;;4992240;28;20166;-62
2022/02/28 08:50:32;;;;;;;11.25;2.92;;;10.50;99.90;;;;;;4989490;28;20264;-63
2022/02/28 08:52:59;;;;;;;5.50;3.08;;;10.60;99.90;;;;;;4992928;28;20133;-61
2022/02/28 08:55:26;;;;;;;5.45;2.90;;;10.70;99.90;;;;;;4999992;28;20685;-61
2022/02/28 08:57:53;;;;;;;5.13;2.80;;;10.70;99.90;;;;;;5001154;28;21047;-61
2022/02/28 09:00:22;;;;;;;4.28;2.33;;;10.90;99.90;;;;;;4998046;28;20124;-61
2022/02/28 09:02:49;;;;;;;5.78;2.47;;;10.90;99.90;;;;;;4985575;28;20077;-61
2022/02/28 09:05:16;;;;;;;5.22;2.33;;;11.10;99.90;;;;;;4991068;28;20508;-62
2022/02/28 09:07:43;;;;;;;5.28;2.28;;;11.10;99.90;;;;;;4988132;28;20132;-61
2022/02/28 09:10:10;;;;;;;5.28;2.33;;;11.10;99.90;;;;;;4995150;28;20156;-61
2022/02/28 09:12:37;;;;;;;4.95;2.22;;;11.10;99.90;;;;;;4986931;28;20133;-61
2022/02/28 09:15:04;;;;;;;4.57;1.95;;;11.20;99.90;;;;;;5010611;28;20656;-61
2022/02/28 09:17:32;;;;;;;3.85;1.90;;;11.30;99.90;;;;;;5020397;28;20061;-61
2022/02/28 09:20:00;;;;;;;4.63;1.95;;;11.50;99.90;;;;;;4996632;28;20507;-61
2022/02/28 09:22:26;;;;;;;3.30;1.30;;;11.70;99.90;;;;;;5018416;28;20095;-61
2022/02/28 09:24:53;;;;;;;3.88;1.70;;;12.00;99.90;;;;;;5005181;28;20164;-62
2022/02/28 09:27:20;;;;;;;3.95;1.83;;;12.10;99.90;;;;;;5020054;28;20341;-61
2022/02/28 09:30:07;;;;;;;3.03;1.80;;;12.20;99.90;;;;;;5004003;28;20054;-61
2022/02/28 09:32:34;;;;;;;2.72;1.73;;;12.30;99.90;;;;;;4999053;28;20140;-61
2022/02/28 09:35:01;;;;;;;4.20;1.77;;;12.40;99.90;;;;;;5000112;28;20266;-62
2022/02/28 09:37:28;;;;;;;3.00;1.48;;;12.50;99.90;;;;;;5008028;28;20487;-61
2022/02/28 09:39:54;;;;;;;4.35;1.70;;;12.60;99.90;;;;;;5005396;28;20062;-62
2022/02/28 09:42:21;;;;;;;2.75;1.67;;;12.60;99.90;;;;;;5001209;28;20085;-62
2022/02/28 09:44:48;;;;;;;4.38;1.98;;;12.60;99.90;;;;;;4997290;28;20068;-61
2022/02/28 09:47:15;;;;;;;2.83;1.45;;;12.60;99.90;;;;;;4999179;28;20161;-62
2022/02/28 09:49:42;;;;;;;4.57;1.50;;;12.60;99.90;;;;;;4981405;28;20050;-62
2022/02/28 09:52:08;;;;;;;4.55;1.90;;;12.50;99.90;;;;;;4992883;28;20513;-62
2022/02/28 09:54:35;;;;;;;3.20;1.52;;;12.40;99.90;;;;;;4988868;28;20269;-62
2022/02/28 09:57:02;;;;;;;4.30;2.00;;;12.50;99.90;;;;;;5000265;28;20088;-62
2022/02/28 09:59:29;;;;;;;4.45;1.60;;;12.50;99.90;;;;;;4982951;28;20100;-62
2022/02/28 10:01:58;;;;;;;4.10;1.50;;;12.60;99.90;;;;;;4996696;28;20096;-62
2022/02/28 10:04:27;;;;;;;3.15;1.67;;;12.60;99.90;;;;;;5005140;28;20430;-61
2022/02/28 10:06:54;;;;;;;2.60;1.50;;;12.80;99.90;;;;;;5009443;28;20441;-61
2022/02/28 10:09:21;;;;;;;3.92;1.50;;;12.80;99.90;;;;;;5010064;28;20531;-62
2022/02/28 10:11:49;;;;;;;2.28;1.35;;;12.90;99.90;;;;;;4999604;28;20065;-60
2022/02/28 10:14:16;;;;;;;2.80;1.60;;;13.00;99.90;;;;;;4992833;28;20089;-62
2022/02/28 10:16:44;;;;;;;3.45;1.35;;;13.20;99.90;;;;;;4993066;28;20141;-62
2022/02/28 10:19:12;;;;;;;3.75;1.30;;;13.10;99.90;;;;;;4995905;28;20128;-61
2022/02/28 10:21:47;;;;;;;3.83;1.60;;;13.20;99.90;;;;;;4997607;28;20086;-61
2022/02/28 10:24:25;;;;;;;3.58;1.70;;;13.20;99.90;;;;;;5002600;28;20100;-61
2022/02/28 10:26:57;;;;;;;4.15;1.67;;;13.20;99.90;;;;;;4994550;28;20073;-62
2022/02/28 10:29:25;;;;;;;4.53;2.13;;;13.10;99.90;;;;;;5008849;28;20721;-62
2022/02/28 10:31:55;;;;;;;4.78;2.42;;;13.00;99.90;;;;;;5006483;28;20077;-61
2022/02/28 10:34:23;;;;;;;6.13;2.28;;;13.00;99.90;;;;;;5006505;28;20622;-62
2022/02/28 10:36:57;;;;;;;6.20;2.55;;;13.10;99.90;;;;;;5020836;28;20138;-62
2022/02/28 10:39:35;;;;;;;6.68;1.73;;;13.20;99.90;;;;;;5013356;28;20109;-61
2022/02/28 10:42:07;;;;;;;3.70;1.73;;;13.30;99.90;;;;;;4999619;28;20080;-62
2022/02/28 10:44:35;;;;;;;4.95;1.75;;;13.30;99.90;;;;;;4995789;28;20465;-62
2022/02/28 10:47:08;;;;;;;2.38;1.20;;;13.40;99.90;;;;;;5003935;28;20121;-62
2022/02/28 10:49:36;;;;;;;5.65;1.30;;;13.50;99.90;;;;;;4989640;28;20077;-62
2022/02/28 10:52:07;;;;;;;2.88;1.60;;;13.60;99.90;;;;;;5011419;28;20092;-61
2022/02/28 10:54:44;;;;;;;2.05;1.25;;;13.60;99.90;;;;;;4993758;28;20363;-62
2022/02/28 10:57:17;;;;;;;2.78;1.60;;;13.70;99.90;;;;;;4986150;28;20062;-62
2022/02/28 10:59:46;;;;;;;4.45;1.50;;;13.70;99.90;;;;;;5006556;28;20133;-62
2022/02/28 11:02:29;;;;;;;4.13;1.58;;;13.80;99.90;;;;;;5003068;28;20524;-62
2022/02/28 11:05:17;;;;;;;4.43;1.85;;;13.70;99.90;;;;;;4987395;28;20046;-62
2022/02/28 11:07:47;;;;;;;3.53;1.83;;;13.70;99.90;;;;;;5000654;28;20127;-62
2022/02/28 11:10:16;;;;;;;3.17;1.85;;;13.80;99.90;;;;;;5003770;28;20141;-61
2022/02/28 11:12:43;;;;;;;4.90;2.10;;;14.00;99.90;;;;;;4991982;28;20309;-61
2022/02/28 11:15:15;;;;;;;3.65;1.70;;;14.00;99.90;;;;;;5009753;28;20153;-62
2022/02/28 11:17:46;;;;;;;4.53;2.00;;;14.00;99.90;;;;;;5007712;28;20050;-62
2022/02/28 11:20:18;;;;;;;3.55;1.60;;;14.00;99.90;;;;;;4991704;28;20057;-61
2022/02/28 11:22:46;;;;;;;5.78;2.10;;;13.90;99.90;;;;;;4979515;28;20215;-62
2022/02/28 11:25:17;;;;;;;5.32;1.83;;;13.90;99.90;;;;;;4994190;28;20411;-62
2022/02/28 11:27:44;;;;;;;3.38;1.80;;;13.90;99.90;;;;;;5004938;28;20158;-62
2022/02/28 11:30:21;;;;;;;2.75;1.50;;;14.00;99.90;;;;;;5002741;28;20046;-61
2022/02/28 11:33:13;;;;;;;4.45;1.70;;;14.20;99.90;;;;;;5013780;28;20475;-62
2022/02/28 11:35:55;;;;;;;2.40;1.45;;;14.30;99.90;;;;;;4999187;28;20425;-62
2022/02/28 11:38:29;;;;;;;5.85;1.80;;;14.30;99.90;;;;;;5017295;28;20088;-62
2022/02/28 11:41:03;;;;;;;3.43;1.70;;;14.40;99.90;;;;;;5013961;28;20557;-62
2022/02/28 11:43:38;;;;;;;2.53;1.23;;;14.50;99.90;;;;;;5011236;28;20787;-61
2022/02/28 11:46:05;;;;;;;2.92;1.23;;;14.70;99.90;;;;;;4986652;28;20078;-62
2022/02/28 11:48:40;;;;;;;3.70;1.77;;;15.00;99.90;;;;;;4994670;28;20108;-61
2022/02/28 11:51:19;;;;;;;3.05;1.63;;;15.00;99.90;;;;;;4993833;28;20184;-62
2022/02/28 11:54:16;;;;;;;3.90;2.10;;;14.80;99.90;;;;;;4989790;28;20303;-61
2022/02/28 11:56:44;;;;;;;4.00;1.50;;;14.40;99.90;;;;;;4991229;28;20081;-62
2022/02/28 11:59:18;;;;;;;3.85;1.58;;;14.50;99.90;;;;;;4985538;28;20082;-60
2022/02/28 12:01:47;;;;;;;3.65;1.52;;;14.60;99.90;;;;;;4992449;28;20077;-62
2022/02/28 12:04:38;;;;;;;2.97;1.40;;;14.60;99.90;;;;;;5000194;28;20092;-61
2022/02/28 12:07:28;;;;;;;4.30;1.60;;;14.40;99.90;;;;;;5018728;28;20045;-62
2022/02/28 12:10:07;;;;;;;5.05;1.70;;;14.40;99.90;;;;;;5007764;28;20120;-61
2022/02/28 12:12:35;;;;;;;3.10;1.70;;;14.10;99.90;;;;;;4990703;28;20498;-62
2022/02/28 12:15:04;;;;;;;5.03;1.45;;;14.00;99.90;;;;;;5001894;28;20141;-62
2022/02/28 12:20:32;;;;;;;3.97;1.38;;;13.80;99.90;;;;;;4992975;28;20133;-61
2022/02/28 12:23:08;;;;;;;3.78;1.50;;;13.70;99.90;;;;;;4992380;28;20236;-62
2022/02/28 12:25:53;;;;;;;3.97;1.60;;;13.80;99.90;;;;;;5002274;28;20065;-62
2022/02/28 12:28:29;;;;;;;3.15;1.60;;;13.70;99.90;;;;;;5001876;28;20550;-61
2022/02/28 12:30:58;;;;;;;5.38;1.42;;;13.60;99.90;;;;;;5001439;28;20081;-62
2022/02/28 12:33:45;;;;;;;4.07;1.45;;;13.70;99.90;;;;;;5014453;28;20399;-61
2022/02/28 12:36:14;;;;;;;2.90;1.23;;;13.90;99.90;;;;;;5001401;28;20097;-61
2022/02/28 12:38:51;;;;;;;3.92;1.42;;;14.00;99.90;;;;;;5001932;28;20085;-61
2022/02/28 12:41:24;;;;;;;3.25;1.65;;;14.00;99.90;;;;;;5001457;28;20100;-61
2022/02/28 12:43:51;;;;;;;1.88;1.00;;;14.00;99.90;;;;;;5000366;28;20054;-61
2022/02/28 12:46:20;;;;;;;2.40;1.10;;;14.10;99.90;;;;;;5001129;28;20363;-62
2022/02/28 12:48:47;;;;;;;4.78;1.83;;;14.20;99.90;;;;;;5000886;28;20108;-62
2022/02/28 12:51:20;;;;;;;2.20;1.08;;;14.20;99.90;;;;;;5001964;28;20050;-62
2022/02/28 12:53:47;;;;;;;2.13;1.30;;;14.10;99.90;;;;;;5000854;28;20518;-61
2022/02/28 12:56:21;;;;;;;1.95;0.98;;;14.10;99.90;;;;;;5001171;28;20265;-61
2022/02/28 12:58:51;;;;;;;2.50;0.95;;;14.20;99.90;;;;;;4999358;28;20093;-61
2022/02/28 13:01:20;;;;;;;3.33;1.25;;;14.10;99.90;;;;;;4999716;28;20130;-62